Terminal Aerodrome Forecast
Issued by NWS

Home | Current Version | Previous Version | Text Only | Print | Product List | Glossary On
Versions: 1 2 3 4 5 6 7 8 9 10 11 12
000
FTUS45 KABQ 041741
TAFSAF
TAF
KSAF 041741Z 0418/0518 VRB06KT P6SM SCT070 BKN100
     FM042000 20013KT P6SM VCSH SCT070 BKN080
     FM050100 16012KT P6SM VCSH BKN060
     FM051000 VRB06KT P6SM BKN035 BKN080
     FM051600 23008KT P6SM SCT050 BKN090=

USA.gov is the U.S. government's official web portal to all federal, state and local government web resources and services.